createdAt,value
2019-04-01T00:02:22.219Z,41.58
2019-04-01T00:04:54.173Z,38.02
2019-04-01T00:07:27.804Z,32.93
2019-04-01T00:10:02.067Z,35.17
2019-04-01T00:12:36.372Z,31.15
2019-04-01T00:15:09.959Z,31.55
2019-04-01T00:17:41.284Z,33.75
2019-04-01T00:20:13.023Z,36.75
2019-04-01T00:22:47.977Z,40.00
2019-04-01T00:25:22.511Z,40.48
2019-04-01T00:27:54.083Z,43.92
2019-04-01T00:30:26.064Z,41.13
2019-04-01T00:33:07.061Z,44.67
2019-04-01T00:35:38.210Z,42.65
2019-04-01T00:38:08.486Z,46.42
2019-04-01T00:40:40.437Z,36.63
2019-04-01T00:43:22.856Z,36.28
2019-04-01T00:45:54.790Z,36.20
2019-04-01T00:48:24.941Z,36.28
2019-04-01T00:50:55.055Z,42.48
2019-04-01T00:53:26.600Z,40.15
2019-04-01T00:55:56.976Z,37.55
2019-04-01T00:58:30.359Z,33.92
2019-04-01T01:40:57.166Z,40.05
2019-04-01T01:43:27.914Z,41.30
2019-04-01T01:45:58.017Z,39.23
2019-04-01T01:48:29.785Z,43.23
2019-04-01T01:50:59.916Z,45.70
2019-04-01T01:53:31.783Z,46.20
2019-04-01T01:56:01.892Z,41.68
2019-04-01T01:58:31.945Z,42.95
2019-04-01T02:01:03.276Z,42.10
2019-04-01T02:03:33.435Z,45.48
2019-04-01T02:06:04.973Z,42.30
2019-04-01T02:08:35.108Z,42.65
2019-04-01T02:11:05.265Z,46.87
2019-04-01T02:13:35.447Z,47.13
2019-04-01T02:16:06.947Z,41.95
2019-04-01T02:18:38.300Z,46.10
2019-04-01T02:21:08.429Z,42.30
2019-04-01T02:23:39.398Z,48.15
2019-04-01T02:26:10.457Z,45.35
2019-04-01T02:28:43.032Z,46.95
2019-04-01T02:31:16.861Z,47.70
2019-04-01T02:33:47.088Z,49.33
2019-04-01T02:36:17.274Z,51.18
2019-04-01T02:38:51.615Z,48.98
2019-04-01T02:41:22.113Z,47.90
2019-04-01T02:43:55.629Z,48.52
2019-04-01T02:46:26.128Z,46.73
2019-04-01T02:48:56.448Z,48.23
2019-04-01T02:51:26.736Z,49.88
2019-04-01T02:53:56.870Z,49.93
2019-04-01T02:56:28.828Z,47.75
2019-04-01T02:58:59.377Z,47.78
2019-04-01T03:01:34.266Z,51.07
2019-04-01T03:04:06.912Z,54.77
2019-04-01T03:06:39.054Z,51.07
2019-04-01T03:09:09.248Z,50.92
2019-04-01T03:11:39.453Z,50.03
2019-04-01T03:14:09.580Z,49.48
2019-04-01T03:16:39.744Z,50.33
2019-04-01T03:19:09.843Z,50.78
2019-04-01T03:21:40.350Z,47.85
2019-04-01T03:24:11.232Z,56.08
2019-04-01T03:26:41.542Z,51.13
2019-04-01T03:29:12.640Z,52.80
2019-04-01T03:31:43.518Z,53.15
2019-04-01T03:34:17.529Z,51.80
2019-04-01T03:36:47.626Z,48.10
2019-04-01T03:39:18.213Z,49.38
2019-04-01T03:41:48.397Z,51.50
2019-04-01T03:44:20.648Z,47.03
2019-04-01T03:46:51.241Z,54.85
2019-04-01T03:49:24.728Z,53.42
2019-04-01T03:51:55.576Z,50.43
2019-04-01T03:54:37.062Z,50.75
2019-04-01T03:57:07.633Z,54.38
2019-04-01T03:59:37.801Z,58.63
2019-04-01T04:02:11.463Z,52.40
2019-04-01T04:04:42.793Z,55.30
2019-04-01T04:07:13.950Z,55.90
2019-04-01T04:09:44.090Z,49.73
2019-04-01T04:12:15.744Z,53.23
2019-04-01T04:14:50.783Z,51.68
2019-04-01T04:17:20.059Z,53.28
2019-04-01T04:19:52.488Z,50.38
2019-04-01T04:22:25.738Z,57.88
2019-04-01T04:24:56.140Z,49.63
2019-04-01T04:27:29.176Z,53.23
2019-04-01T04:30:00.515Z,51.58
2019-04-01T04:32:30.713Z,50.55
2019-04-01T04:35:01.177Z,53.85
2019-04-01T04:37:33.717Z,52.03
2019-04-01T04:40:08.960Z,51.23
2019-04-01T04:42:40.013Z,78.67
2019-04-01T04:45:11.822Z,63.23
2019-04-01T04:47:43.039Z,60.38
2019-04-01T04:50:16.250Z,59.55
2019-04-01T04:52:46.364Z,59.30
2019-04-01T04:55:16.516Z,56.02
2019-04-01T04:57:46.630Z,60.45
2019-04-01T05:00:22.559Z,58.25
2019-04-01T05:02:56.243Z,60.35
2019-04-01T05:05:27.100Z,59.15
2019-04-01T05:07:57.643Z,57.17
2019-04-01T05:10:27.899Z,58.73
2019-04-01T05:13:00.152Z,62.13
2019-04-01T05:15:30.988Z,68.85
2019-04-01T05:18:02.498Z,51.83
2019-04-01T05:20:33.054Z,49.18
2019-04-01T05:23:05.345Z,52.58
2019-04-01T05:25:38.186Z,54.48
2019-04-01T05:28:11.596Z,54.63
2019-04-01T05:30:43.550Z,50.45
2019-04-01T05:33:17.080Z,51.23
2019-04-01T05:35:48.465Z,55.23
2019-04-01T05:38:20.629Z,55.03
2019-04-01T05:40:50.815Z,51.98
2019-04-01T05:43:25.888Z,50.70
2019-04-01T05:45:56.375Z,55.43
2019-04-01T05:48:29.922Z,59.48
2019-04-01T05:51:03.283Z,58.25
2019-04-01T05:53:33.454Z,56.18
2019-04-01T05:56:04.616Z,61.53
2019-04-01T05:58:34.793Z,62.25
2019-04-01T06:01:19.147Z,60.75
2019-04-01T06:03:51.519Z,61.55
2019-04-01T06:06:23.499Z,62.95
2019-04-01T06:08:54.528Z,64.47
2019-04-01T06:11:25.753Z,64.27
2019-04-01T06:13:57.386Z,61.77
2019-04-01T06:16:28.026Z,61.48
2019-04-01T06:19:00.366Z,60.58
2019-04-01T06:21:32.767Z,62.83
2019-04-01T06:24:05.458Z,61.37
2019-04-01T06:26:59.201Z,59.58
2019-04-01T06:29:31.622Z,67.80
2019-04-01T06:32:04.723Z,64.58
2019-04-01T06:34:36.605Z,60.45
2019-04-01T06:37:09.682Z,61.45
2019-04-01T06:39:47.028Z,63.83
2019-04-01T06:42:20.976Z,66.80
2019-04-01T06:45:10.001Z,63.68
2019-04-01T06:47:46.912Z,60.85
2019-04-01T06:50:22.910Z,65.55
2019-04-01T06:52:58.850Z,59.58
2019-04-01T06:55:29.373Z,57.85
2019-04-01T06:58:12.051Z,58.70
2019-04-01T07:00:47.747Z,52.48
2019-04-01T07:03:21.004Z,57.55
2019-04-01T07:05:55.429Z,58.83
2019-04-01T07:08:27.435Z,55.45
2019-04-01T07:12:29.721Z,53.70
2019-04-01T07:15:01.845Z,64.47
2019-04-01T07:17:32.712Z,73.45
2019-04-01T07:20:09.189Z,54.93
2019-04-01T07:22:42.768Z,54.77
2019-04-01T07:25:14.109Z,55.58
2019-04-01T07:27:52.382Z,59.20
2019-04-01T07:30:29.913Z,67.80
2019-04-01T07:33:02.852Z,52.38
2019-04-01T07:35:46.481Z,59.55
2019-04-01T07:38:19.052Z,53.38
2019-04-01T07:40:59.206Z,54.25
2019-04-01T07:43:32.512Z,52.10
2019-04-01T07:48:38.905Z,61.25
2019-04-01T07:51:30.862Z,54.27
2019-04-01T07:54:07.806Z,51.60
2019-04-01T07:56:45.218Z,53.05
2019-04-01T07:59:21.419Z,49.67
2019-04-01T08:02:00.758Z,59.00
2019-04-01T08:04:39.915Z,60.38
2019-04-01T08:07:17.394Z,58.75
2019-04-01T08:09:58.951Z,53.08
2019-04-01T08:12:46.173Z,51.75
2019-04-01T08:15:37.457Z,50.43
2019-04-01T08:18:15.657Z,52.00
2019-04-01T08:21:03.662Z,51.63
2019-04-01T08:24:02.504Z,57.58
2019-04-01T08:26:34.145Z,55.38
2019-04-01T08:29:10.463Z,55.30
2019-04-01T08:31:46.271Z,50.88
2019-04-01T08:34:23.855Z,54.00
2019-04-01T08:37:04.915Z,57.25
2019-04-01T08:39:38.855Z,48.33
2019-04-01T08:42:11.444Z,48.60
2019-04-01T08:44:47.738Z,53.55
2019-04-01T08:47:22.656Z,50.75
2019-04-01T08:53:55.403Z,51.42
2019-04-01T08:56:39.425Z,54.42
2019-04-01T09:02:17.199Z,49.93
2019-04-01T09:04:40.175Z,51.33
2019-04-01T09:07:12.782Z,52.60
2019-04-01T09:09:43.478Z,50.60
2019-04-01T09:12:14.498Z,47.27
2019-04-01T09:15:03.644Z,49.20
2019-04-01T09:17:40.368Z,42.27
2019-04-01T09:20:11.302Z,47.80
2019-04-01T09:22:43.440Z,48.15
2019-04-01T09:25:19.020Z,43.17
2019-04-01T09:27:52.157Z,44.75
2019-04-01T09:30:23.395Z,47.78
2019-04-01T09:32:53.613Z,44.35
2019-04-01T09:35:27.520Z,47.60
2019-04-01T09:37:59.385Z,46.13
2019-04-01T09:40:32.328Z,44.70
2019-04-01T09:43:07.467Z,43.65
2019-04-01T09:45:40.528Z,45.48
2019-04-01T09:48:12.229Z,45.65
2019-04-01T09:50:47.080Z,46.20
2019-04-01T09:53:17.227Z,39.45
2019-04-01T09:55:55.808Z,44.42
2019-04-01T09:58:31.445Z,38.73
2019-04-01T10:01:04.551Z,48.13
2019-04-01T10:03:43.998Z,45.48
2019-04-01T10:06:21.723Z,41.28
2019-04-01T10:08:55.085Z,42.73
2019-04-01T10:11:32.531Z,45.35
2019-04-01T10:14:34.167Z,41.48
2019-04-01T10:17:19.210Z,45.15
2019-04-01T10:19:54.826Z,43.40
2019-04-01T10:22:40.084Z,40.43
2019-04-01T10:25:22.387Z,41.05
2019-04-01T10:27:59.950Z,40.17
2019-04-01T10:30:47.189Z,43.60
2019-04-01T10:33:46.380Z,43.98
2019-04-01T10:36:41.616Z,41.50
2019-04-01T10:39:30.573Z,40.98
2019-04-01T10:42:12.494Z,39.70
2019-04-01T10:45:02.054Z,39.13
2019-04-01T10:47:59.868Z,41.15
2019-04-01T10:51:01.655Z,39.38
2019-04-01T10:53:56.144Z,37.03
2019-04-01T10:56:36.058Z,36.75
2019-04-01T10:59:23.122Z,36.40
2019-04-01T11:01:58.793Z,38.30
2019-04-01T11:04:39.251Z,33.35
2019-04-01T11:07:37.538Z,37.38
2019-04-01T11:10:40.518Z,33.42
2019-04-01T11:13:31.273Z,34.78
2019-04-01T11:16:11.352Z,30.62
2019-04-01T11:19:25.783Z,33.65
2019-04-01T11:22:24.088Z,38.67
2019-04-01T11:25:35.395Z,41.33
2019-04-01T11:28:05.661Z,35.85
2019-04-01T11:30:57.244Z,36.08
2019-04-01T11:34:20.945Z,46.75
2019-04-01T11:37:31.861Z,33.70
2019-04-01T11:41:10.917Z,32.60
2019-04-01T11:48:30.312Z,37.60
2019-04-01T11:51:58.423Z,32.95
2019-04-01T12:01:15.567Z,30.55
2019-04-01T12:03:56.263Z,27.75
2019-04-01T12:06:53.069Z,32.30
2019-04-01T12:09:52.420Z,31.60
2019-04-01T12:13:07.531Z,35.23
2019-04-01T12:19:20.201Z,30.23
2019-04-01T12:21:58.265Z,32.50
2019-04-01T12:28:41.008Z,28.60
2019-04-01T12:31:31.868Z,33.25
2019-04-01T12:34:35.016Z,30.10
2019-04-01T12:37:13.893Z,28.90
2019-04-01T12:40:09.982Z,28.38
2019-04-01T12:42:50.491Z,28.50
2019-04-01T12:45:40.850Z,29.57
2019-04-01T12:48:35.971Z,24.85
2019-04-01T12:51:14.383Z,28.05
2019-04-01T12:53:53.094Z,27.62
2019-04-01T12:56:34.581Z,28.75
2019-04-01T13:02:31.077Z,28.50
2019-04-01T13:05:20.851Z,23.45
2019-04-01T13:08:02.042Z,24.45
2019-04-01T13:10:48.683Z,25.82
2019-04-01T13:13:27.081Z,26.30
2019-04-01T13:16:37.248Z,24.60
2019-04-01T13:19:37.068Z,23.30
2019-04-01T13:22:10.834Z,24.98
2019-04-01T13:24:54.363Z,23.87
2019-04-01T13:27:32.793Z,22.25
2019-04-01T13:30:08.349Z,26.27
2019-04-01T13:32:59.103Z,24.55
2019-04-01T13:39:04.126Z,25.60
2019-04-01T13:41:45.826Z,37.37
2019-04-01T13:44:35.689Z,22.10
2019-04-01T13:47:01.572Z,24.77
2019-04-01T13:49:39.729Z,24.07
2019-04-01T13:52:26.741Z,25.30
2019-04-01T13:55:09.830Z,24.10
2019-04-01T13:57:48.646Z,20.07
2019-04-01T14:00:23.239Z,24.00
2019-04-01T14:03:26.264Z,22.40
2019-04-01T14:06:06.033Z,23.33
2019-04-01T14:08:33.418Z,21.87
2019-04-01T14:14:48.694Z,25.90
2019-04-01T14:17:41.974Z,19.90
2019-04-01T14:20:28.008Z,22.50
2019-04-01T14:23:04.039Z,22.83
2019-04-01T14:25:55.989Z,19.80
2019-04-01T14:31:31.008Z,20.67
2019-04-01T14:34:06.437Z,21.57
2019-04-01T14:39:39.479Z,16.90
2019-04-01T14:42:12.717Z,17.23
2019-04-01T14:44:51.936Z,20.07
2019-04-01T14:47:23.866Z,18.37
2019-04-01T14:49:56.648Z,18.53
2019-04-01T14:52:32.742Z,19.20
2019-04-01T14:54:59.293Z,20.37
2019-04-01T14:57:29.439Z,20.03
2019-04-01T14:59:59.653Z,20.00
2019-04-01T15:02:31.336Z,18.20
2019-04-01T15:05:04.661Z,18.10
2019-04-01T15:07:34.344Z,19.03
2019-04-01T15:10:05.364Z,21.63
2019-04-01T15:12:36.594Z,15.97
2019-04-01T15:15:10.204Z,17.37
2019-04-01T15:17:42.909Z,18.23
2019-04-01T15:20:16.180Z,18.15
2019-04-01T15:22:48.219Z,17.57
2019-04-01T15:25:20.660Z,17.93
2019-04-01T15:27:52.814Z,20.73
2019-04-01T15:30:23.932Z,19.67
2019-04-01T15:32:54.245Z,18.93
2019-04-01T15:35:24.457Z,18.13
2019-04-01T15:37:55.505Z,18.77
2019-04-01T15:40:33.041Z,16.60
2019-04-01T15:43:03.781Z,18.50
2019-04-01T15:45:37.639Z,17.63
2019-04-01T15:48:08.032Z,18.53
2019-04-01T15:50:42.428Z,18.30
2019-04-01T15:53:12.983Z,20.43
2019-04-01T15:55:49.107Z,18.93
2019-04-01T16:05:42.108Z,41.28
2019-04-01T16:08:36.329Z,19.10
2019-04-01T16:15:54.132Z,21.70
2019-04-01T16:18:24.349Z,20.20
2019-04-01T16:20:59.282Z,22.27
2019-04-01T16:23:28.399Z,19.52
2019-04-01T16:26:03.238Z,19.75
2019-04-01T16:28:37.091Z,22.73
2019-04-01T16:31:07.739Z,21.10
2019-04-01T16:33:37.979Z,20.65
2019-04-01T16:36:10.329Z,22.45
2019-04-01T16:38:47.395Z,21.90
2019-04-01T16:41:19.861Z,21.35
2019-04-01T16:43:56.275Z,21.12
2019-04-01T16:46:29.849Z,23.83
2019-04-01T16:49:03.272Z,22.73
2019-04-01T16:51:41.529Z,23.43
2019-04-01T16:54:12.067Z,25.68
2019-04-01T16:56:42.837Z,22.45
2019-04-01T16:59:15.017Z,23.42
2019-04-01T17:01:47.940Z,24.67
2019-04-01T17:04:18.151Z,24.57
2019-04-01T17:06:49.513Z,24.60
2019-04-01T17:09:58.300Z,23.32
2019-04-01T17:12:31.547Z,23.90
2019-04-01T17:15:05.635Z,30.02
2019-04-01T17:24:56.336Z,25.80
2019-04-01T17:27:47.142Z,22.17
2019-04-01T17:30:24.745Z,26.62
2019-04-01T17:35:52.382Z,24.95
2019-04-01T17:38:27.921Z,25.32
2019-04-01T17:41:10.445Z,25.92
2019-04-01T17:43:45.683Z,25.85
2019-04-01T17:46:35.329Z,26.62
2019-04-01T17:49:10.145Z,29.92
2019-04-01T17:51:54.048Z,24.92
2019-04-01T17:54:29.172Z,26.65
2019-04-01T17:57:13.643Z,26.20
2019-04-01T17:59:47.331Z,24.35
2019-04-01T18:02:30.425Z,28.57
2019-04-01T18:05:04.877Z,25.77
2019-04-01T18:07:38.571Z,28.05
2019-04-01T18:10:09.778Z,23.83
2019-04-01T18:12:40.007Z,25.68
2019-04-01T18:15:10.372Z,22.73
2019-04-01T18:17:44.404Z,22.60
2019-04-01T18:20:19.853Z,27.13
2019-04-01T18:23:06.484Z,25.05
2019-04-01T18:25:38.463Z,23.18
2019-04-01T18:28:13.105Z,23.47
2019-04-01T18:30:43.877Z,24.87
2019-04-01T18:33:14.281Z,22.02
2019-04-01T18:35:54.260Z,20.77
2019-04-01T18:38:21.384Z,20.17
2019-04-01T18:40:52.198Z,20.35
2019-04-01T18:43:24.381Z,21.00
2019-04-01T18:45:58.547Z,22.45
2019-04-01T18:48:31.093Z,21.42
2019-04-01T18:51:06.877Z,23.95
2019-04-01T18:53:37.130Z,22.20
2019-04-01T18:56:12.109Z,25.32
2019-04-01T18:58:43.260Z,24.72
2019-04-01T19:01:17.029Z,23.98
2019-04-01T19:03:49.735Z,21.37
2019-04-01T19:06:22.994Z,22.10
2019-04-01T19:09:08.770Z,24.18
2019-04-01T19:11:30.100Z,23.92
2019-04-01T19:14:00.868Z,25.10
2019-04-01T19:16:40.659Z,26.50
2019-04-01T19:19:11.561Z,22.02
2019-04-01T19:21:45.316Z,23.70
2019-04-01T19:24:24.413Z,23.47
2019-04-01T19:26:57.797Z,24.15
2019-04-01T19:29:35.428Z,19.23
2019-04-01T19:32:10.487Z,20.45
2019-04-01T19:34:40.623Z,21.82
2019-04-01T19:37:12.571Z,18.87
2019-04-01T19:39:45.730Z,26.10
2019-04-01T19:42:29.099Z,20.90
2019-04-01T19:45:02.268Z,22.15
2019-04-01T19:47:36.981Z,23.98
2019-04-01T19:50:18.494Z,20.48
2019-04-01T19:52:49.791Z,20.85
2019-04-01T19:55:27.808Z,23.38
2019-04-01T19:57:58.866Z,19.75
2019-04-01T20:00:31.260Z,24.32
2019-04-01T20:03:02.126Z,21.20
2019-04-01T20:05:34.768Z,20.95
2019-04-01T20:08:07.446Z,23.25
2019-04-01T20:10:41.292Z,22.25
2019-04-01T20:13:13.143Z,24.60
2019-04-01T20:16:10.091Z,22.32
2019-04-01T20:18:41.507Z,26.52
2019-04-01T20:21:15.415Z,31.77
2019-04-01T20:23:48.703Z,23.55
2019-04-01T20:26:22.224Z,24.65
2019-04-01T20:28:53.603Z,27.98
2019-04-01T20:31:38.227Z,25.92
2019-04-01T20:34:19.696Z,23.90
2019-04-01T20:36:52.439Z,20.85
2019-04-01T20:39:25.280Z,22.13
2019-04-01T20:41:56.611Z,23.65
2019-04-01T20:44:32.793Z,28.77
2019-04-01T20:47:01.033Z,27.70
2019-04-01T20:49:31.199Z,26.97
2019-04-01T20:52:09.281Z,24.87
2019-04-01T20:54:45.188Z,24.65
2019-04-01T20:57:17.309Z,33.58
2019-04-01T20:59:50.617Z,26.33
2019-04-01T21:02:24.510Z,24.75
2019-04-01T21:04:57.371Z,31.45
2019-04-01T21:07:28.132Z,26.62
2019-04-01T21:09:59.874Z,27.82
2019-04-01T21:12:30.442Z,25.80
2019-04-01T21:15:05.421Z,25.40
2019-04-01T21:17:44.861Z,30.60
2019-04-01T21:20:20.154Z,26.07
2019-04-01T21:22:51.299Z,32.33
2019-04-01T21:25:25.493Z,32.53
2019-04-01T21:27:58.717Z,29.40
2019-04-01T21:30:31.041Z,30.52
2019-04-01T21:33:05.869Z,38.23
2019-04-01T21:35:38.556Z,35.35
2019-04-01T21:38:11.894Z,31.02
2019-04-01T21:40:45.813Z,29.00
2019-04-01T21:43:20.260Z,29.82
2019-04-01T21:45:51.784Z,31.45
2019-04-01T21:48:28.196Z,28.80
2019-04-01T21:51:05.484Z,28.45
2019-04-01T21:53:39.213Z,31.90
2019-04-01T21:56:11.036Z,30.20
2019-04-01T21:58:45.487Z,31.52
2019-04-01T22:01:17.808Z,37.00
2019-04-01T22:03:49.496Z,32.15
2019-04-01T22:06:22.110Z,32.78
2019-04-01T22:08:54.218Z,33.78
2019-04-01T22:11:26.777Z,31.40
2019-04-01T22:13:59.342Z,38.80
2019-04-01T22:16:31.961Z,28.55
2019-04-01T22:19:04.058Z,28.65
2019-04-01T22:21:35.401Z,31.20
2019-04-01T22:24:12.672Z,30.90
2019-04-01T22:26:47.503Z,33.35
2019-04-01T22:29:21.874Z,29.00
2019-04-01T22:31:53.460Z,37.40
2019-04-01T22:34:31.004Z,30.92
2019-04-01T22:37:03.707Z,36.60
2019-04-01T22:39:38.908Z,35.88
2019-04-01T22:42:12.479Z,35.50
2019-04-01T22:44:48.227Z,32.33
2019-04-01T22:47:26.077Z,31.93
2019-04-01T22:50:02.616Z,29.15
2019-04-01T22:52:48.204Z,29.25
2019-04-01T22:55:42.409Z,31.65
2019-04-01T22:58:18.641Z,34.50
2019-04-01T23:01:03.030Z,38.00
2019-04-01T23:03:37.768Z,43.60
2019-04-01T23:09:09.884Z,31.60
2019-04-01T23:11:57.458Z,31.15
2019-04-01T23:14:29.715Z,41.05
2019-04-01T23:17:08.057Z,37.40
2019-04-01T23:19:40.465Z,37.53
2019-04-01T23:22:13.623Z,39.70
2019-04-01T23:24:47.163Z,40.83
2019-04-01T23:27:17.670Z,34.43
2019-04-01T23:29:53.565Z,40.17
2019-04-01T23:32:45.807Z,39.33
2019-04-01T23:35:24.274Z,39.65
2019-04-01T23:38:04.620Z,32.28
2019-04-01T23:40:35.642Z,31.30
2019-04-01T23:43:11.405Z,37.03
2019-04-01T23:45:46.909Z,37.30
2019-04-01T23:48:26.058Z,37.85
2019-04-01T23:50:58.077Z,33.05
2019-04-01T23:53:50.883Z,37.40
2019-04-01T23:56:27.122Z,43.50
2019-04-01T23:59:00.645Z,42.78
